Time;durP1;ratioP1;P1;durP2;ratioP2;P2;SDS_P1;SDS_P2;PMS_P1;PMS_P2;Temp;Humidity;BMP_temperature;BMP_pressure;BME280_temperature;BME280_humidity;BME280_pressure;Samples;Min_cycle;Max_cycle;Signal;HPM_P1;HPM_P2
2022/11/10 00:01:30;;;;;;;25.65;18.25;;;;;;;;;;5037164;28;20104;-72
2022/11/10 00:03:57;;;;;;;24.00;17.00;;;;;;;;;;5052913;28;20120;-73
2022/11/10 00:06:23;;;;;;;34.50;18.15;;;;;;;;;;5051353;28;20418;-73
2022/11/10 00:08:49;;;;;;;24.42;16.73;;;;;;;;;;5051596;28;20356;-73
2022/11/10 00:11:15;;;;;;;25.67;17.70;;;;;;;;;;5052027;28;20100;-73
2022/11/10 00:19:10;;;;;;;23.45;17.08;;;;;;;;;;5039779;28;20036;-72
2022/11/10 00:21:36;;;;;;;21.70;16.83;;;;;;;;;;5052413;28;20025;-72
2022/11/10 00:24:03;;;;;;;25.73;17.05;;;;;;;;;;5052405;28;20025;-72
2022/11/10 00:26:29;;;;;;;23.83;16.73;;;;;;;;;;5052400;28;20029;-71
2022/11/10 00:28:55;;;;;;;26.58;16.83;;;;;;;;;;5052492;28;20017;-71
2022/11/10 00:31:21;;;;;;;23.35;16.48;;;;;;;;;;5052388;28;20018;-71
2022/11/10 00:33:47;;;;;;;21.00;15.10;;;;;;;;;;5052324;28;20074;-72
2022/11/10 00:36:13;;;;;;;26.50;16.40;;;;;;;;;;5052312;28;20021;-72
2022/11/10 00:38:39;;;;;;;21.42;14.60;;;;;;;;;;5052456;28;20025;-71
2022/11/10 00:41:05;;;;;;;21.10;14.93;;;;;;;;;;5052512;28;20162;-72
2022/11/10 00:43:32;;;;;;;19.73;14.82;;;;;;;;;;5052304;28;20041;-72
2022/11/10 00:45:58;;;;;;;17.90;13.82;;;;;;;;;;5052136;28;20098;-72
2022/11/10 00:48:24;;;;;;;21.50;14.38;;;;;;;;;;5052163;28;20086;-72
2022/11/10 00:50:50;;;;;;;21.42;14.18;;;;;;;;;;5052287;28;20565;-71
2022/11/10 00:53:16;;;;;;;18.60;13.98;;;;;;;;;;5051971;28;20151;-72
2022/11/10 00:55:42;;;;;;;22.23;15.05;;;;;;;;;;5052341;28;20048;-72
2022/11/10 00:58:08;;;;;;;22.02;16.45;;;;;;;;;;5052381;28;20024;-72
2022/11/10 01:00:34;;;;;;;26.00;18.15;;;;;;;;;;5052203;28;20017;-72
2022/11/10 01:03:01;;;;;;;25.90;17.98;;;;;;;;;;5051926;28;20426;-72
2022/11/10 01:05:28;;;;;;;21.98;15.60;;;;;;;;;;5052102;28;20025;-72
2022/11/10 01:07:54;;;;;;;22.63;15.40;;;;;;;;;;5052040;28;20029;-72
2022/11/10 01:10:20;;;;;;;22.83;15.40;;;;;;;;;;5052108;28;20443;-73
2022/11/10 01:12:46;;;;;;;21.52;14.95;;;;;;;;;;5052113;28;20083;-71
2022/11/10 01:15:12;;;;;;;20.20;14.88;;;;;;;;;;5052099;28;20104;-72
2022/11/10 01:17:38;;;;;;;20.40;14.50;;;;;;;;;;5051953;28;20017;-72
2022/11/10 01:20:07;;;;;;;21.00;14.35;;;;;;;;;;5051900;28;20029;-72
2022/11/10 01:22:33;;;;;;;18.95;13.52;;;;;;;;;;5055016;28;20032;-73
2022/11/10 01:24:59;;;;;;;19.25;13.13;;;;;;;;;;5055966;28;20108;-72
2022/11/10 01:27:25;;;;;;;17.95;12.85;;;;;;;;;;5055526;28;20017;-71
2022/11/10 01:29:51;;;;;;;17.48;12.55;;;;;;;;;;5055676;28;20021;-73
2022/11/10 01:32:17;;;;;;;18.73;12.40;;;;;;;;;;5055356;28;20036;-73
2022/11/10 01:34:43;;;;;;;22.42;12.38;;;;;;;;;;5055775;28;20375;-73
2022/11/10 01:37:09;;;;;;;17.98;12.43;;;;;;;;;;5055370;28;20442;-73
2022/11/10 01:39:35;;;;;;;17.95;12.23;;;;;;;;;;5055439;28;20021;-73
2022/11/10 01:42:01;;;;;;;17.38;12.60;;;;;;;;;;5055283;28;20064;-73
2022/11/10 01:44:27;;;;;;;17.52;12.18;;;;;;;;;;5048963;28;20411;-73
2022/11/10 01:46:54;;;;;;;17.65;11.70;;;;;;;;;;5046216;28;20075;-72
2022/11/10 01:49:22;;;;;;;16.48;11.90;;;;;;;;;;5039747;28;20104;-72
2022/11/10 01:51:50;;;;;;;18.45;12.43;;;;;;;;;;5055072;28;20402;-73
2022/11/10 01:54:23;;;;;;;17.00;11.80;;;;;;;;;;5055099;28;20021;-73
2022/11/10 01:56:51;;;;;;;20.23;13.00;;;;;;;;;;5055229;28;20441;-73
2022/11/10 01:59:19;;;;;;;19.10;12.52;;;;;;;;;;5055164;28;20025;-73
2022/11/10 02:01:47;;;;;;;21.88;13.85;;;;;;;;;;5054759;28;20057;-73
2022/11/10 02:04:15;;;;;;;20.23;13.55;;;;;;;;;;5054964;28;20035;-72
2022/11/10 02:06:42;;;;;;;18.52;13.48;;;;;;;;;;5054778;28;20467;-73
2022/11/10 02:09:08;;;;;;;28.58;13.70;;;;;;;;;;5054932;28;20036;-71
2022/11/10 02:11:35;;;;;;;21.38;13.32;;;;;;;;;;5039209;28;20029;-72
2022/11/10 02:14:01;;;;;;;21.30;12.77;;;;;;;;;;5054848;28;20029;-73
2022/11/10 02:16:27;;;;;;;16.45;12.25;;;;;;;;;;5041148;28;20022;-72
2022/11/10 02:18:53;;;;;;;17.40;12.05;;;;;;;;;;5050672;28;20087;-72
2022/11/10 02:21:20;;;;;;;18.42;11.63;;;;;;;;;;5054743;28;20100;-72
2022/11/10 02:23:49;;;;;;;15.27;11.27;;;;;;;;;;5054216;28;20126;-72
2022/11/10 02:26:17;;;;;;;16.90;12.75;;;;;;;;;;5054617;28;20525;-72
2022/11/10 02:28:43;;;;;;;21.15;14.40;;;;;;;;;;5054322;28;20056;-72
2022/11/10 02:31:09;;;;;;;19.05;13.20;;;;;;;;;;5055057;28;20021;-73
2022/11/10 02:33:35;;;;;;;18.70;12.23;;;;;;;;;;5053673;28;20028;-72
2022/11/10 02:36:02;;;;;;;20.15;13.38;;;;;;;;;;5054423;28;20021;-72
2022/11/10 02:38:28;;;;;;;26.58;16.33;;;;;;;;;;5054126;28;20025;-72
2022/11/10 02:40:54;;;;;;;20.80;14.18;;;;;;;;;;5054404;28;20513;-72
2022/11/10 02:43:20;;;;;;;18.38;11.93;;;;;;;;;;5053975;28;20041;-72
2022/11/10 02:45:46;;;;;;;39.85;24.77;;;;;;;;;;5054478;28;20098;-72
2022/11/10 02:48:13;;;;;;;30.70;15.77;;;;;;;;;;5044935;28;20025;-71
2022/11/10 02:50:39;;;;;;;25.40;15.60;;;;;;;;;;5048099;28;20383;-71
2022/11/10 02:53:06;;;;;;;18.55;12.80;;;;;;;;;;5053880;28;20028;-72
2022/11/10 02:55:32;;;;;;;15.13;11.35;;;;;;;;;;5044642;28;20395;-72
2022/11/10 02:57:58;;;;;;;15.68;10.60;;;;;;;;;;5048174;28;20107;-72
2022/11/10 03:00:24;;;;;;;17.20;11.35;;;;;;;;;;5054113;28;20032;-72
2022/11/10 03:03:04;;;;;;;15.90;10.63;;;;;;;;;;5053530;28;20037;-72
2022/11/10 03:05:30;;;;;;;15.15;10.75;;;;;;;;;;5040053;28;20013;-72
2022/11/10 03:08:00;;;;;;;17.00;10.15;;;;;;;;;;5053637;28;20027;-72
2022/11/10 03:10:27;;;;;;;14.30;10.38;;;;;;;;;;5053648;28;20471;-72
2022/11/10 03:12:54;;;;;;;15.68;10.15;;;;;;;;;;5053800;28;20026;-72
2022/11/10 03:15:20;;;;;;;14.18;9.73;;;;;;;;;;5053661;28;20072;-72
2022/11/10 03:17:46;;;;;;;13.68;9.82;;;;;;;;;;5053366;28;20052;-72
2022/11/10 03:20:12;;;;;;;15.25;10.20;;;;;;;;;;5053494;28;20033;-72
2022/11/10 03:22:38;;;;;;;14.43;10.35;;;;;;;;;;5052242;28;20115;-72
2022/11/10 03:25:05;;;;;;;13.45;10.15;;;;;;;;;;5053417;28;20487;-72
2022/11/10 03:27:31;;;;;;;16.27;11.18;;;;;;;;;;5053176;28;20478;-72
2022/11/10 03:29:57;;;;;;;14.23;10.48;;;;;;;;;;5053499;28;20025;-72
2022/11/10 03:32:23;;;;;;;12.80;9.60;;;;;;;;;;5053130;28;20021;-72
2022/11/10 03:34:49;;;;;;;12.15;9.80;;;;;;;;;;5050920;28;20096;-72
2022/11/10 03:37:15;;;;;;;14.23;9.50;;;;;;;;;;5053151;28;20028;-71
2022/11/10 03:39:41;;;;;;;15.43;9.88;;;;;;;;;;5053157;28;20556;-73
2022/11/10 03:42:07;;;;;;;12.85;9.40;;;;;;;;;;5053082;28;20071;-71
2022/11/10 03:44:33;;;;;;;13.52;9.27;;;;;;;;;;5051617;28;20049;-71
2022/11/10 03:47:02;;;;;;;14.68;9.90;;;;;;;;;;5035050;28;20055;-71
2022/11/10 03:49:29;;;;;;;12.38;9.45;;;;;;;;;;5052703;28;20025;-72
2022/11/10 03:51:55;;;;;;;15.90;10.45;;;;;;;;;;5053104;28;20104;-73
2022/11/10 03:54:21;;;;;;;14.68;9.30;;;;;;;;;;5038030;28;20492;-72
2022/11/10 03:56:47;;;;;;;14.60;10.50;;;;;;;;;;5051464;28;20029;-72
2022/11/10 03:59:13;;;;;;;15.02;9.20;;;;;;;;;;5052817;28;20048;-71
2022/11/10 04:01:39;;;;;;;15.35;9.45;;;;;;;;;;5052712;28;20032;-72
2022/11/10 04:08:57;;;;;;;10.85;7.55;;;;;;;;;;5052711;28;20032;-72
2022/11/10 04:09:36;;;;;;;10.38;7.10;;;;;;;;;;5052600;28;20548;-72
2022/11/10 04:17:31;;;;;;;11.05;8.20;;;;;;;;;;5040100;28;20504;-73
2022/11/10 04:19:57;;;;;;;12.15;8.50;;;;;;;;;;5052634;28;20025;-73
2022/11/10 04:25:08;;;;;;;11.23;7.57;;;;;;;;;;5052667;28;20505;-72
2022/11/10 04:27:34;;;;;;;12.20;7.80;;;;;;;;;;5052289;28;20029;-72
2022/11/10 04:30:00;;;;;;;8.48;6.65;;;;;;;;;;5052527;28;20056;-71
2022/11/10 04:32:26;;;;;;;13.05;7.53;;;;;;;;;;5052287;28;20024;-71
2022/11/10 04:34:52;;;;;;;11.35;6.45;;;;;;;;;;5052662;28;20028;-72
2022/11/10 04:37:18;;;;;;;12.30;6.93;;;;;;;;;;5052219;28;20021;-73
2022/11/10 04:39:44;;;;;;;9.95;6.30;;;;;;;;;;5052863;28;20021;-72
2022/11/10 04:42:10;;;;;;;11.43;7.22;;;;;;;;;;5052152;28;20534;-72
2022/11/10 04:44:36;;;;;;;25.23;16.48;;;;;;;;;;5052273;28;20053;-72
2022/11/10 04:47:02;;;;;;;15.95;10.70;;;;;;;;;;5052274;28;20494;-72
2022/11/10 04:49:28;;;;;;;18.65;11.50;;;;;;;;;;5035969;28;20670;-72
2022/11/10 04:51:54;;;;;;;14.00;9.27;;;;;;;;;;5052114;28;20021;-72
2022/11/10 04:54:20;;;;;;;10.50;8.10;;;;;;;;;;5052129;28;20053;-72
2022/11/10 04:56:46;;;;;;;11.93;8.57;;;;;;;;;;5054488;28;20025;-73
2022/11/10 04:59:12;;;;;;;12.55;8.75;;;;;;;;;;5056433;28;20036;-72
2022/11/10 05:01:39;;;;;;;18.20;9.98;;;;;;;;;;5055829;28;20025;-73
2022/11/10 05:04:05;;;;;;;13.73;9.10;;;;;;;;;;5056322;28;20021;-72
2022/11/10 05:06:31;;;;;;;16.02;9.88;;;;;;;;;;5055926;28;20110;-73
2022/11/10 05:08:57;;;;;;;20.38;12.60;;;;;;;;;;5056078;28;20029;-73
2022/11/10 05:11:23;;;;;;;21.85;13.65;;;;;;;;;;5055802;28;20025;-71
2022/11/10 05:13:49;;;;;;;16.92;12.02;;;;;;;;;;5056271;28;20033;-72
2022/11/10 05:16:15;;;;;;;15.43;11.05;;;;;;;;;;5055979;28;20033;-73
2022/11/10 05:18:41;;;;;;;18.67;11.10;;;;;;;;;;5055835;28;20044;-72
2022/11/10 05:21:07;;;;;;;16.70;10.48;;;;;;;;;;5055731;28;20032;-73
2022/11/10 05:23:40;;;;;;;16.83;10.75;;;;;;;;;;5055783;28;20029;-73
2022/11/10 05:26:16;;;;;;;18.80;13.07;;;;;;;;;;5055217;28;20018;-72
2022/11/10 05:28:43;;;;;;;20.90;13.32;;;;;;;;;;5055807;28;20032;-73
2022/11/10 05:31:10;;;;;;;18.15;12.70;;;;;;;;;;5055608;28;20387;-73
2022/11/10 05:33:37;;;;;;;15.25;11.18;;;;;;;;;;5055665;28;20383;-73
2022/11/10 05:36:04;;;;;;;14.45;10.43;;;;;;;;;;5055335;28;20021;-72
2022/11/10 05:38:30;;;;;;;15.05;10.30;;;;;;;;;;5055751;28;20025;-72
2022/11/10 05:40:56;;;;;;;18.70;11.90;;;;;;;;;;5055302;28;20014;-72
2022/11/10 05:43:22;;;;;;;16.90;10.23;;;;;;;;;;5055447;28;20441;-72
2022/11/10 05:45:49;;;;;;;23.27;13.90;;;;;;;;;;5055088;28;20075;-71
2022/11/10 05:48:15;;;;;;;28.13;18.88;;;;;;;;;;5055240;28;20575;-72
2022/11/10 05:50:42;;;;;;;28.13;18.48;;;;;;;;;;5055270;28;20139;-72
2022/11/10 05:53:08;;;;;;;27.10;18.08;;;;;;;;;;5055488;28;20024;-72
2022/11/10 05:55:34;;;;;;;17.65;11.50;;;;;;;;;;5054982;28;20036;-72
2022/11/10 05:58:00;;;;;;;17.10;12.40;;;;;;;;;;5055247;28;20051;-73
2022/11/10 06:00:27;;;;;;;18.52;12.52;;;;;;;;;;5055420;28;20382;-72
2022/11/10 06:02:57;;;;;;;18.65;11.93;;;;;;;;;;5054773;28;20032;-72
2022/11/10 06:05:23;;;;;;;20.35;11.40;;;;;;;;;;5055007;28;20403;-72
2022/11/10 06:07:49;;;;;;;17.48;11.30;;;;;;;;;;5053771;28;20028;-72
2022/11/10 06:10:15;;;;;;;16.17;11.95;;;;;;;;;;5055332;28;20021;-72
2022/11/10 06:12:41;;;;;;;23.98;14.75;;;;;;;;;;5054741;28;20029;-72
2022/11/10 06:15:09;;;;;;;20.52;12.38;;;;;;;;;;5054769;28;20025;-72
2022/11/10 06:17:36;;;;;;;19.33;14.05;;;;;;;;;;5054572;28;20013;-71
2022/11/10 06:20:03;;;;;;;20.25;13.05;;;;;;;;;;5054728;28;20513;-72
2022/11/10 06:22:29;;;;;;;19.60;12.57;;;;;;;;;;5040294;28;20391;-72
2022/11/10 06:24:55;;;;;;;20.02;12.35;;;;;;;;;;5054370;28;20459;-72
2022/11/10 06:27:21;;;;;;;24.55;14.15;;;;;;;;;;5054167;28;20021;-72
2022/11/10 06:29:47;;;;;;;20.40;12.80;;;;;;;;;;5054498;28;20070;-72
2022/11/10 06:32:13;;;;;;;23.02;14.30;;;;;;;;;;5054067;28;20056;-72
2022/11/10 06:34:39;;;;;;;23.48;14.15;;;;;;;;;;5054366;28;20375;-72
2022/11/10 06:37:05;;;;;;;27.95;18.98;;;;;;;;;;5054547;28;20360;-72
2022/11/10 06:39:31;;;;;;;29.75;18.75;;;;;;;;;;5054654;28;20017;-71
2022/11/10 06:41:57;;;;;;;48.25;33.20;;;;;;;;;;5054064;28;20116;-72
2022/11/10 06:44:23;;;;;;;42.40;30.13;;;;;;;;;;5053781;28;20040;-71
2022/11/10 06:46:49;;;;;;;54.67;34.85;;;;;;;;;;5054028;28;20049;-72
2022/11/10 06:49:15;;;;;;;35.30;26.13;;;;;;;;;;5054153;28;20374;-71
2022/11/10 06:51:42;;;;;;;46.78;28.05;;;;;;;;;;5053840;28;20455;-71
2022/11/10 06:54:08;;;;;;;64.15;35.95;;;;;;;;;;5053889;28;20021;-72
2022/11/10 06:56:34;;;;;;;43.15;26.85;;;;;;;;;;5053339;28;20017;-71
2022/11/10 06:59:00;;;;;;;58.65;33.65;;;;;;;;;;5054061;28;20028;-71
2022/11/10 07:01:27;;;;;;;33.08;22.35;;;;;;;;;;5032450;28;20044;-71
2022/11/10 07:03:53;;;;;;;40.58;26.27;;;;;;;;;;5045855;28;20407;-71
2022/11/10 07:06:20;;;;;;;26.98;18.63;;;;;;;;;;5046575;28;20028;-71
2022/11/10 07:08:46;;;;;;;23.60;15.77;;;;;;;;;;5054109;28;20067;-71
2022/11/10 07:11:12;;;;;;;24.08;15.18;;;;;;;;;;5053514;28;20032;-71
2022/11/10 07:13:38;;;;;;;24.27;15.63;;;;;;;;;;5053733;28;20111;-71
2022/11/10 07:16:05;;;;;;;30.38;16.60;;;;;;;;;;5036099;28;20025;-71
2022/11/10 07:18:31;;;;;;;20.00;14.43;;;;;;;;;;5036930;28;20037;-71
2022/11/10 07:20:57;;;;;;;32.03;16.30;;;;;;;;;;5053408;28;20021;-71
2022/11/10 07:23:23;;;;;;;22.33;16.50;;;;;;;;;;5053289;28;20045;-71
2022/11/10 07:25:49;;;;;;;98.25;70.72;;;;;;;;;;5053613;28;20020;-72
2022/11/10 07:28:15;;;;;;;35.58;23.85;;;;;;;;;;5053074;28;20028;-71
2022/11/10 07:30:41;;;;;;;46.08;29.70;;;;;;;;;;5053339;28;20017;-72
2022/11/10 07:33:10;;;;;;;45.53;30.45;;;;;;;;;;5053207;28;20437;-71
2022/11/10 07:35:36;;;;;;;56.90;37.35;;;;;;;;;;5053111;28;20025;-71
2022/11/10 07:38:20;;;;;;;57.05;38.40;;;;;;;;;;5052866;28;20028;-72
2022/11/10 07:40:50;;;;;;;49.50;36.03;;;;;;;;;;5053082;28;20040;-71
2022/11/10 07:43:16;;;;;;;50.05;31.15;;;;;;;;;;5053041;28;20511;-72
2022/11/10 07:45:42;;;;;;;59.97;38.88;;;;;;;;;;5036631;28;20079;-71
2022/11/10 07:48:09;;;;;;;30.02;17.23;;;;;;;;;;5043466;28;20033;-71
2022/11/10 07:50:35;;;;;;;24.25;15.35;;;;;;;;;;5046385;28;20024;-71
2022/11/10 07:53:09;;;;;;;36.13;23.73;;;;;;;;;;5052620;28;20021;-72
2022/11/10 07:55:36;;;;;;;27.63;17.85;;;;;;;;;;5052793;28;20021;-72
2022/11/10 07:58:02;;;;;;;24.08;14.27;;;;;;;;;;5052745;28;20095;-72
2022/11/10 08:00:28;;;;;;;26.73;17.58;;;;;;;;;;5052646;28;20017;-72
2022/11/10 08:02:54;;;;;;;25.63;16.98;;;;;;;;;;5052650;28;20423;-71
2022/11/10 08:05:20;;;;;;;33.80;22.15;;;;;;;;;;5052682;28;20084;-72
2022/11/10 08:07:46;;;;;;;35.50;22.58;;;;;;;;;;5052487;28;20483;-72
2022/11/10 08:10:12;;;;;;;33.90;23.20;;;;;;;;;;5052626;28;20471;-71
2022/11/10 08:12:38;;;;;;;35.95;24.60;;;;;;;;;;5052608;28;20024;-71
2022/11/10 08:15:05;;;;;;;27.85;20.13;;;;;;;;;;5052595;28;20119;-71
2022/11/10 08:17:31;;;;;;;36.22;25.45;;;;;;;;;;5052340;28;20013;-71
2022/11/10 08:19:57;;;;;;;32.05;20.77;;;;;;;;;;5052711;28;20379;-72
2022/11/10 08:22:23;;;;;;;36.05;21.23;;;;;;;;;;5052200;28;20495;-71
2022/11/10 08:24:49;;;;;;;45.80;34.28;;;;;;;;;;5052315;28;20510;-72
2022/11/10 08:27:15;;;;;;;32.83;21.20;;;;;;;;;;5052158;28;20502;-72
2022/11/10 08:29:41;;;;;;;38.55;25.05;;;;;;;;;;5052506;28;20021;-72
2022/11/10 08:32:07;;;;;;;36.75;22.88;;;;;;;;;;5058031;28;20083;-72
2022/11/10 08:34:33;;;;;;;27.92;19.20;;;;;;;;;;5058928;28;20048;-72
2022/11/10 08:36:59;;;;;;;28.38;18.45;;;;;;;;;;5059060;28;20055;-72
2022/11/10 08:39:25;;;;;;;41.45;25.45;;;;;;;;;;5058582;28;20029;-72
2022/11/10 08:41:51;;;;;;;31.25;22.27;;;;;;;;;;5058773;28;20382;-72
2022/11/10 08:44:17;;;;;;;25.08;18.15;;;;;;;;;;5058476;28;20502;-72
2022/11/10 08:46:43;;;;;;;23.52;16.95;;;;;;;;;;5058946;28;20024;-72
2022/11/10 08:49:09;;;;;;;23.60;17.05;;;;;;;;;;5058671;28;20442;-72
2022/11/10 08:51:35;;;;;;;28.95;17.52;;;;;;;;;;5058875;28;20017;-72
2022/11/10 08:54:01;;;;;;;27.60;17.42;;;;;;;;;;5046829;28;20128;-72
2022/11/10 08:56:27;;;;;;;20.30;16.42;;;;;;;;;;5054306;28;20056;-72
2022/11/10 08:58:54;;;;;;;18.08;14.65;;;;;;;;;;5058674;28;20032;-73
2022/11/10 09:01:20;;;;;;;29.23;15.63;;;;;;;;;;5058857;28;20371;-72
2022/11/10 09:03:46;;;;;;;27.15;18.35;;;;;;;;;;5058417;28;20064;-72
2022/11/10 09:06:12;;;;;;;26.27;20.30;;;;;;;;;;5058875;28;20021;-73
2022/11/10 09:08:38;;;;;;;32.33;19.92;;;;;;;;;;5038190;28;20033;-72
2022/11/10 09:11:04;;;;;;;28.35;18.77;;;;;;;;;;5048729;28;20056;-72
2022/11/10 09:13:30;;;;;;;33.58;18.58;;;;;;;;;;5058862;28;20025;-72
2022/11/10 09:15:59;;;;;;;32.65;20.35;;;;;;;;;;5058984;28;20051;-74
2022/11/10 09:18:25;;;;;;;37.67;22.52;;;;;;;;;;5058751;28;20063;-73
2022/11/10 09:20:51;;;;;;;36.50;24.55;;;;;;;;;;5058745;28;20509;-73
2022/11/10 09:23:18;;;;;;;37.75;24.20;;;;;;;;;;5058327;28;20041;-73
2022/11/10 09:25:49;;;;;;;40.60;26.85;;;;;;;;;;5058305;28;20044;-72
2022/11/10 09:28:16;;;;;;;41.50;27.92;;;;;;;;;;5058428;28;20031;-73
2022/11/10 09:30:42;;;;;;;39.22;27.98;;;;;;;;;;5039836;28;20534;-73
2022/11/10 09:33:08;;;;;;;46.28;29.80;;;;;;;;;;5048075;28;20096;-73
2022/11/10 09:35:34;;;;;;;38.35;28.55;;;;;;;;;;5058130;28;20024;-73
2022/11/10 09:38:00;;;;;;;42.53;25.33;;;;;;;;;;5048167;28;20495;-73
2022/11/10 09:40:44;;;;;;;35.42;21.50;;;;;;;;;;5052230;28;20066;-73
2022/11/10 09:43:17;;;;;;;21.63;16.75;;;;;;;;;;5044145;28;20033;-73
2022/11/10 09:45:45;;;;;;;28.15;21.88;;;;;;;;;;5055077;28;20057;-73
2022/11/10 09:48:22;;;;;;;23.67;18.35;;;;;;;;;;5055146;28;20032;-73
2022/11/10 09:50:53;;;;;;;26.73;15.68;;;;;;;;;;5055531;28;20067;-73
2022/11/10 09:53:24;;;;;;;26.83;17.27;;;;;;;;;;5055074;28;20020;-73
2022/11/10 09:55:52;;;;;;;30.00;19.33;;;;;;;;;;5054966;28;20482;-73
2022/11/10 09:58:20;;;;;;;19.92;15.85;;;;;;;;;;5055134;28;20024;-74
2022/11/10 10:00:50;;;;;;;24.27;15.30;;;;;;;;;;5054800;28;20190;-75
2022/11/10 10:03:21;;;;;;;23.85;15.02;;;;;;;;;;5055000;28;20487;-73
2022/11/10 10:05:56;;;;;;;22.35;15.85;;;;;;;;;;5054654;28;20050;-74
2022/11/10 10:08:31;;;;;;;21.88;12.77;;;;;;;;;;5054749;28;20021;-75
2022/11/10 10:11:20;;;;;;;18.80;13.07;;;;;;;;;;5044211;28;20436;-73
2022/11/10 10:13:52;;;;;;;18.70;13.85;;;;;;;;;;5052807;28;20108;-75
2022/11/10 10:16:21;;;;;;;20.92;12.25;;;;;;;;;;5054437;28;20035;-74
2022/11/10 10:18:57;;;;;;;29.58;18.02;;;;;;;;;;5054589;28;20021;-75
2022/11/10 10:21:42;;;;;;;23.15;15.07;;;;;;;;;;5054787;28;20487;-75
2022/11/10 10:24:13;;;;;;;22.33;12.52;;;;;;;;;;5054644;28;20037;-75
2022/11/10 10:26:42;;;;;;;11.32;9.25;;;;;;;;;;5054384;28;20025;-75
2022/11/10 10:29:10;;;;;;;16.10;11.80;;;;;;;;;;5054240;28;20028;-75
2022/11/10 10:31:40;;;;;;;18.83;14.93;;;;;;;;;;5054439;28;20025;-75
2022/11/10 10:34:14;;;;;;;18.75;14.88;;;;;;;;;;5054451;28;20025;-74
2022/11/10 10:36:40;;;;;;;15.20;10.48;;;;;;;;;;5054518;28;20028;-74
2022/11/10 10:39:10;;;;;;;13.95;9.75;;;;;;;;;;5054624;28;20352;-75
2022/11/10 10:41:36;;;;;;;10.90;9.77;;;;;;;;;;5054269;28;20025;-75
2022/11/10 10:44:09;;;;;;;11.40;10.13;;;;;;;;;;5053793;28;20037;-75
2022/11/10 10:47:08;;;;;;;13.73;10.10;;;;;;;;;;5054511;28;20029;-74
2022/11/10 10:49:35;;;;;;;11.45;10.13;;;;;;;;;;4972843;28;20042;-74
2022/11/10 10:52:10;;;;;;;12.27;10.35;;;;;;;;;;4973391;28;20760;-75
2022/11/10 10:54:37;;;;;;;12.43;11.13;;;;;;;;;;4972541;28;20560;-75
2022/11/10 10:57:04;;;;;;;17.58;9.43;;;;;;;;;;4973165;28;20074;-75
2022/11/10 10:59:31;;;;;;;12.07;9.50;;;;;;;;;;4973018;28;20144;-74
2022/11/10 11:01:57;;;;;;;11.73;9.30;;;;;;;;;;4972937;28;20105;-74
2022/11/10 11:04:31;;;;;;;14.85;10.10;;;;;;;;;;4972309;28;20050;-75
2022/11/10 11:06:59;;;;;;;22.98;12.50;;;;;;;;;;4972703;28;20405;-75
2022/11/10 11:09:26;;;;;;;13.38;11.25;;;;;;;;;;4973023;28;20027;-75
2022/11/10 11:11:59;;;;;;;14.32;10.05;;;;;;;;;;4972418;28;20043;-74
2022/11/10 11:14:27;;;;;;;17.08;11.65;;;;;;;;;;4972940;28;20470;-74
2022/11/10 11:16:55;;;;;;;16.73;12.25;;;;;;;;;;4972531;28;20413;-75
2022/11/10 11:19:23;;;;;;;14.82;9.02;;;;;;;;;;4972754;28;20426;-75
2022/11/10 11:21:49;;;;;;;15.27;10.57;;;;;;;;;;4972451;28;20079;-74
2022/11/10 11:24:22;;;;;;;10.75;6.97;;;;;;;;;;4981527;28;20043;-75
2022/11/10 11:26:50;;;;;;;14.32;9.48;;;;;;;;;;5047054;28;20021;-75
2022/11/10 11:29:29;;;;;;;11.50;8.63;;;;;;;;;;5053236;28;20387;-75
2022/11/10 11:32:13;;;;;;;12.63;7.63;;;;;;;;;;5053041;28;20052;-75
2022/11/10 11:34:58;;;;;;;8.68;7.75;;;;;;;;;;5041367;28;20025;-75
2022/11/10 11:37:44;;;;;;;20.75;8.73;;;;;;;;;;5053198;28;21427;-75
2022/11/10 11:40:16;;;;;;;14.27;10.77;;;;;;;;;;4991579;28;20031;-76
2022/11/10 11:42:51;;;;;;;8.13;5.90;;;;;;;;;;4991360;28;20105;-75
2022/11/10 11:45:26;;;;;;;9.25;6.18;;;;;;;;;;4991372;28;20061;-75
2022/11/10 11:47:54;;;;;;;8.27;5.50;;;;;;;;;;4991569;28;20026;-75
2022/11/10 11:50:29;;;;;;;8.45;7.03;;;;;;;;;;4991266;28;20027;-75
2022/11/10 11:53:13;;;;;;;10.77;6.72;;;;;;;;;;4991338;28;20492;-76
2022/11/10 11:55:39;;;;;;;11.00;7.20;;;;;;;;;;4991383;28;20019;-75
2022/11/10 11:58:11;;;;;;;13.32;8.60;;;;;;;;;;4991426;28;20090;-75
2022/11/10 12:00:43;;;;;;;10.98;8.98;;;;;;;;;;4991197;28;20026;-76
2022/11/10 12:03:18;;;;;;;10.20;8.07;;;;;;;;;;4991179;28;20069;-74
2022/11/10 12:06:03;;;;;;;12.77;11.48;;;;;;;;;;4990429;28;20050;-75
2022/11/10 12:08:35;;;;;;;9.55;7.15;;;;;;;;;;4991171;28;20033;-75
2022/11/10 12:11:25;;;;;;;12.23;10.02;;;;;;;;;;4974490;28;20397;-75
2022/11/10 12:14:00;;;;;;;10.18;7.30;;;;;;;;;;4973876;28;20051;-75
2022/11/10 12:16:28;;;;;;;21.08;8.85;;;;;;;;;;5001430;28;20037;-75
2022/11/10 12:18:54;;;;;;;11.82;8.27;;;;;;;;;;5050049;28;20052;-75
2022/11/10 12:21:20;;;;;;;13.95;8.45;;;;;;;;;;5052451;28;20032;-75
2022/11/10 12:24:05;;;;;;;13.93;8.63;;;;;;;;;;5051937;28;20039;-75
2022/11/10 12:26:37;;;;;;;10.50;8.70;;;;;;;;;;5052306;28;20082;-75
2022/11/10 12:29:21;;;;;;;14.00;8.73;;;;;;;;;;5052239;28;20382;-75
2022/11/10 12:31:49;;;;;;;9.48;7.93;;;;;;;;;;5052411;28;20135;-75
2022/11/10 12:34:15;;;;;;;8.05;6.57;;;;;;;;;;5052099;28;20024;-75
2022/11/10 12:36:41;;;;;;;10.07;8.02;;;;;;;;;;5052473;28;20502;-74
2022/11/10 12:39:33;;;;;;;14.52;9.10;;;;;;;;;;5051940;28;20057;-75
2022/11/10 12:41:59;;;;;;;19.23;10.77;;;;;;;;;;5052203;28;20040;-75
2022/11/10 12:44:26;;;;;;;15.95;9.88;;;;;;;;;;5052057;28;20164;-75
2022/11/10 12:46:55;;;;;;;10.70;8.38;;;;;;;;;;5052022;28;20460;-75
2022/11/10 12:49:28;;;;;;;13.35;8.93;;;;;;;;;;5052582;28;20104;-75
2022/11/10 12:52:03;;;;;;;14.38;12.50;;;;;;;;;;5038231;28;20025;-75
2022/11/10 12:54:30;;;;;;;12.13;10.30;;;;;;;;;;5052418;28;20025;-75
2022/11/10 12:56:58;;;;;;;15.57;10.75;;;;;;;;;;5051645;28;20490;-75
2022/11/10 12:59:29;;;;;;;23.23;20.73;;;;;;;;;;5052114;28;20025;-75
2022/11/10 13:02:21;;;;;;;19.25;14.05;;;;;;;;;;5051769;28;20120;-75
2022/11/10 13:05:07;;;;;;;16.70;10.23;;;;;;;;;;5048290;28;20087;-75
2022/11/10 13:07:33;;;;;;;25.30;12.82;;;;;;;;;;5051914;28;20017;-75
2022/11/10 13:10:15;;;;;;;15.27;10.10;;;;;;;;;;5051993;28;20023;-74
2022/11/10 13:12:57;;;;;;;42.60;38.92;;;;;;;;;;5051792;28;20032;-74
2022/11/10 13:15:39;;;;;;;16.77;11.15;;;;;;;;;;5051930;28;20033;-75
2022/11/10 13:18:06;;;;;;;22.60;13.85;;;;;;;;;;5054758;28;20172;-75
2022/11/10 13:20:38;;;;;;;42.03;20.27;;;;;;;;;;5055503;28;20091;-75
2022/11/10 13:23:24;;;;;;;23.50;15.63;;;;;;;;;;5055578;28;20183;-75
2022/11/10 13:25:52;;;;;;;27.80;21.23;;;;;;;;;;5054950;28;20110;-74
2022/11/10 13:28:38;;;;;;;25.83;15.30;;;;;;;;;;5055549;28;20021;-75
2022/11/10 13:31:22;;;;;;;14.68;10.10;;;;;;;;;;5055082;28;20079;-74
2022/11/10 13:34:07;;;;;;;15.77;10.95;;;;;;;;;;5055331;28;20496;-75
2022/11/10 13:36:40;;;;;;;35.92;25.20;;;;;;;;;;5055585;28;20313;-75
2022/11/10 13:39:15;;;;;;;19.38;11.63;;;;;;;;;;5055238;28;20127;-75
2022/11/10 13:41:50;;;;;;;24.88;14.45;;;;;;;;;;5055193;28;20108;-74
2022/11/10 13:44:36;;;;;;;21.50;13.57;;;;;;;;;;5054571;28;20056;-74
2022/11/10 13:47:12;;;;;;;24.10;13.18;;;;;;;;;;5055041;28;20021;-74
2022/11/10 13:49:41;;;;;;;17.45;12.38;;;;;;;;;;5055173;28;20053;-74
2022/11/10 13:52:25;;;;;;;23.00;11.75;;;;;;;;;;5055117;28;20021;-75
2022/11/10 13:55:10;;;;;;;20.20;12.63;;;;;;;;;;5054751;28;20540;-74
2022/11/10 13:57:37;;;;;;;24.02;13.82;;;;;;;;;;5055070;28;20029;-75
2022/11/10 14:00:16;;;;;;;27.55;11.80;;;;;;;;;;5052674;28;20518;-75
2022/11/10 14:02:45;;;;;;;24.77;15.82;;;;;;;;;;5054776;28;20087;-74
2022/11/10 14:05:37;;;;;;;27.60;14.55;;;;;;;;;;5054713;28;20060;-74
2022/11/10 14:08:03;;;;;;;;;;;;;;;;;;4974149;28;20065;-74
2022/11/10 14:11:01;;;;;;;24.10;14.98;;;;;;;;;;4974096;28;19989;-74
2022/11/10 14:13:37;;;;;;;41.30;21.75;;;;;;;;;;4897135;29;20075;-75
2022/11/10 14:16:11;;;;;;;21.15;13.90;;;;;;;;;;4897691;29;20045;-74
2022/11/10 14:18:39;;;;;;;19.45;15.68;;;;;;;;;;4897300;29;20029;-74
2022/11/10 14:21:06;;;;;;;23.30;14.95;;;;;;;;;;4897677;29;20579;-74
2022/11/10 14:23:32;;;;;;;23.77;15.52;;;;;;;;;;4897108;29;20049;-74
2022/11/10 14:26:01;;;;;;;22.30;17.77;;;;;;;;;;4897320;29;20055;-74
2022/11/10 14:28:28;;;;;;;22.17;16.27;;;;;;;;;;4896140;29;20084;-74
2022/11/10 14:30:55;;;;;;;28.75;18.27;;;;;;;;;;4897238;29;20163;-74
2022/11/10 14:33:22;;;;;;;48.42;30.67;;;;;;;;;;4897118;29;20068;-74
2022/11/10 14:35:54;;;;;;;29.30;19.92;;;;;;;;;;4897135;29;20429;-74
2022/11/10 14:38:24;;;;;;;40.58;26.20;;;;;;;;;;4897104;29;20048;-74
2022/11/10 14:40:50;;;;;;;28.85;18.88;;;;;;;;;;4896938;29;20029;-74
2022/11/10 14:43:26;;;;;;;21.17;14.70;;;;;;;;;;4896612;29;20048;-74
2022/11/10 14:45:53;;;;;;;22.15;15.55;;;;;;;;;;4961136;28;20051;-74
2022/11/10 14:48:20;;;;;;;22.27;16.60;;;;;;;;;;4986087;28;20091;-74